createdAt,value
2023-07-03T00:00:54.628Z,5.97
2023-07-03T00:03:23.761Z,5.57
2023-07-03T00:05:53.945Z,5.88
2023-07-03T00:08:22.944Z,5.63
2023-07-03T00:10:51.456Z,5.78
2023-07-03T00:13:19.988Z,6.18
2023-07-03T00:15:48.737Z,5.78
2023-07-03T00:18:17.559Z,5.78
2023-07-03T00:20:47.832Z,5.72
2023-07-03T00:23:18.293Z,6.20
2023-07-03T00:25:47.854Z,5.35
2023-07-03T00:28:16.526Z,5.20
2023-07-03T00:30:45.237Z,6.38
2023-07-03T00:33:14.404Z,5.55
2023-07-03T00:35:43.443Z,5.78
2023-07-03T00:38:12.130Z,5.03
2023-07-03T00:40:43.187Z,4.53
2023-07-03T00:43:11.734Z,5.67
2023-07-03T00:45:40.424Z,5.35
2023-07-03T00:48:09.236Z,6.25
2023-07-03T00:50:37.995Z,5.07
2023-07-03T00:53:08.155Z,5.32
2023-07-03T00:55:39.659Z,5.65
2023-07-03T00:58:11.467Z,5.18
2023-07-03T01:00:46.619Z,4.93
2023-07-03T01:03:24.502Z,4.78
2023-07-03T01:05:57.090Z,5.55
2023-07-03T01:08:27.521Z,5.57
2023-07-03T01:10:57.383Z,5.43
2023-07-03T01:13:30.852Z,5.18
2023-07-03T01:16:00.917Z,4.47
2023-07-03T01:18:29.953Z,5.87
2023-07-03T01:21:06.458Z,4.43
2023-07-03T01:23:41.817Z,4.55
2023-07-03T01:26:13.480Z,4.72
2023-07-03T01:28:44.124Z,4.85
2023-07-03T01:31:16.032Z,5.13
2023-07-03T01:33:46.420Z,4.13
2023-07-03T01:36:15.252Z,5.20
2023-07-03T01:38:45.784Z,4.47
2023-07-03T01:41:19.064Z,4.43
2023-07-03T01:43:49.529Z,4.00
2023-07-03T01:46:18.680Z,4.15
2023-07-03T01:48:47.415Z,4.80
2023-07-03T01:51:22.512Z,4.05
2023-07-03T01:53:56.426Z,4.50
2023-07-03T01:56:30.960Z,4.13
2023-07-03T01:59:09.225Z,4.70
2023-07-03T02:01:48.982Z,4.25
2023-07-03T02:04:26.958Z,4.32
2023-07-03T02:06:58.039Z,3.83
2023-07-03T02:09:28.083Z,4.05
2023-07-03T02:12:01.745Z,4.53
2023-07-03T02:14:31.741Z,3.70
2023-07-03T02:17:00.517Z,3.78
2023-07-03T02:19:30.260Z,3.92
2023-07-03T02:21:59.097Z,3.75
2023-07-03T02:24:28.391Z,4.03
2023-07-03T02:26:57.511Z,3.60
2023-07-03T02:29:27.474Z,3.47
2023-07-03T02:31:56.084Z,3.67
2023-07-03T02:34:24.711Z,4.13
2023-07-03T02:36:54.445Z,3.80
2023-07-03T02:39:23.274Z,3.50
2023-07-03T02:41:51.921Z,3.80
2023-07-03T02:44:20.503Z,3.55
2023-07-03T02:46:50.714Z,3.30
2023-07-03T02:49:20.825Z,3.65
2023-07-03T02:51:49.448Z,3.67
2023-07-03T02:54:18.922Z,3.20
2023-07-03T02:56:47.596Z,2.95
2023-07-03T02:59:16.155Z,4.00
2023-07-03T03:01:45.391Z,2.85
2023-07-03T03:04:17.654Z,2.85
2023-07-03T03:06:47.163Z,2.85
2023-07-03T03:09:15.868Z,2.88
2023-07-03T03:11:44.755Z,3.17
2023-07-03T03:14:14.540Z,2.83
2023-07-03T03:16:43.517Z,2.97
2023-07-03T03:19:12.656Z,2.60
2023-07-03T03:21:43.165Z,2.42
2023-07-03T03:24:11.891Z,2.58
2023-07-03T03:26:40.706Z,2.85
2023-07-03T03:29:09.690Z,3.20
2023-07-03T03:31:38.428Z,2.47
2023-07-03T03:34:08.569Z,2.85
2023-07-03T03:36:40.157Z,2.95
2023-07-03T03:39:12.069Z,2.72
2023-07-03T03:41:41.042Z,2.80
2023-07-03T03:44:12.613Z,2.88
2023-07-03T03:46:42.289Z,2.35
2023-07-03T03:49:12.049Z,2.53
2023-07-03T03:51:41.921Z,2.35
2023-07-03T03:54:15.187Z,2.58
2023-07-03T03:56:43.975Z,2.70
2023-07-03T03:59:12.845Z,2.38
2023-07-03T04:01:41.869Z,2.47
2023-07-03T04:04:10.718Z,2.17
2023-07-03T04:06:40.216Z,2.20
2023-07-03T04:09:09.189Z,2.33
2023-07-03T04:11:39.345Z,2.47
2023-07-03T04:14:08.223Z,2.25
2023-07-03T04:16:37.678Z,2.30
2023-07-03T04:19:06.461Z,2.42
2023-07-03T04:21:35.165Z,2.00
2023-07-03T04:24:03.998Z,1.98
2023-07-03T04:26:33.193Z,2.22
2023-07-03T04:29:03.347Z,2.15
2023-07-03T04:31:32.642Z,2.07
2023-07-03T04:34:01.274Z,2.58
2023-07-03T04:36:30.291Z,2.53
2023-07-03T04:38:59.637Z,1.88
2023-07-03T04:41:29.222Z,2.05
2023-07-03T04:43:59.532Z,2.10
2023-07-03T04:46:31.619Z,2.08
2023-07-03T04:51:32.464Z,1.52
2023-07-03T04:54:02.593Z,1.83
2023-07-03T04:56:33.393Z,2.00
2023-07-03T04:59:02.147Z,1.73
2023-07-03T05:01:32.592Z,2.10
2023-07-03T05:04:01.305Z,1.55
2023-07-03T05:06:30.383Z,2.22
2023-07-03T05:08:59.260Z,2.05
2023-07-03T05:11:27.970Z,1.50
2023-07-03T05:13:56.795Z,1.67
2023-07-03T05:16:25.795Z,1.70
2023-07-03T05:18:56.159Z,1.67
2023-07-03T05:21:25.061Z,1.20
2023-07-03T05:23:53.843Z,1.60
2023-07-03T05:26:22.732Z,1.90
2023-07-03T05:28:51.357Z,1.63
2023-07-03T05:31:23.880Z,1.70
2023-07-03T05:33:53.191Z,1.33
2023-07-03T05:36:23.286Z,1.20
2023-07-03T05:38:52.055Z,1.13
2023-07-03T05:41:20.736Z,1.50
2023-07-03T05:43:50.159Z,1.60
2023-07-03T05:46:19.695Z,1.33
2023-07-03T05:48:49.334Z,1.73
2023-07-03T05:51:17.988Z,1.50
2023-07-03T05:53:48.164Z,1.55
2023-07-03T05:56:16.889Z,1.50
2023-07-03T05:58:45.617Z,1.20
2023-07-03T06:01:14.442Z,1.50
2023-07-03T06:03:44.861Z,2.20
2023-07-03T06:06:14.128Z,1.55
2023-07-03T06:08:43.231Z,1.23
2023-07-03T06:11:13.446Z,1.25
2023-07-03T06:13:42.110Z,2.17
2023-07-03T06:16:10.846Z,1.40
2023-07-03T06:18:39.563Z,1.42
2023-07-03T06:21:08.218Z,1.38
2023-07-03T06:23:36.942Z,1.60
2023-07-03T06:26:05.686Z,0.77
2023-07-03T06:28:35.843Z,1.20
2023-07-03T06:31:04.658Z,1.50
2023-07-03T06:33:33.369Z,1.20
2023-07-03T06:36:02.082Z,1.30
2023-07-03T06:38:30.727Z,1.05
2023-07-03T06:41:00.188Z,1.00
2023-07-03T06:43:28.952Z,1.33
2023-07-03T06:45:59.325Z,1.40
2023-07-03T06:48:28.170Z,1.75
2023-07-03T06:51:04.765Z,0.88
2023-07-03T06:53:33.645Z,1.10
2023-07-03T06:56:03.383Z,1.13
2023-07-03T06:58:33.627Z,1.45
2023-07-03T07:01:09.566Z,0.95
2023-07-03T07:03:39.595Z,0.80
2023-07-03T07:06:12.967Z,0.95
2023-07-03T07:08:42.484Z,1.23
2023-07-03T07:11:12.039Z,1.08
2023-07-03T07:13:42.037Z,0.95
2023-07-03T07:16:15.851Z,1.20
2023-07-03T07:18:45.175Z,1.15
2023-07-03T07:21:13.776Z,0.65
2023-07-03T07:23:42.587Z,0.90
2023-07-03T07:26:11.316Z,0.70
2023-07-03T07:28:40.005Z,0.85
2023-07-03T07:31:08.821Z,0.93
2023-07-03T07:33:39.091Z,0.85
2023-07-03T07:36:14.179Z,0.88
2023-07-03T07:38:42.912Z,1.05
2023-07-03T07:41:11.548Z,0.98
2023-07-03T07:43:40.531Z,0.82
2023-07-03T07:46:09.227Z,0.75
2023-07-03T07:48:40.092Z,0.90
2023-07-03T07:53:39.937Z,0.98
2023-07-03T07:56:10.726Z,1.10
2023-07-03T08:01:08.610Z,1.38
2023-07-03T08:03:39.663Z,1.00
2023-07-03T08:06:08.584Z,0.77
2023-07-03T08:08:38.247Z,1.00
2023-07-03T08:11:09.146Z,0.80
2023-07-03T08:16:07.824Z,0.95
2023-07-03T08:18:36.656Z,0.73
2023-07-03T08:21:06.941Z,0.60
2023-07-03T08:23:35.791Z,0.55
2023-07-03T08:26:04.731Z,0.90
2023-07-03T08:28:33.507Z,1.15
2023-07-03T08:31:02.150Z,0.98
2023-07-03T08:33:31.067Z,0.68
2023-07-03T08:38:33.641Z,0.77
2023-07-03T08:41:04.190Z,0.77
2023-07-03T08:43:37.764Z,0.90
2023-07-03T08:46:11.509Z,0.90
2023-07-03T08:48:43.280Z,0.55
2023-07-03T08:51:19.805Z,0.85
2023-07-03T08:53:54.549Z,0.80
2023-07-03T08:56:24.816Z,0.60
2023-07-03T08:58:54.967Z,1.15
2023-07-03T09:01:30.123Z,1.00
2023-07-03T09:04:12.058Z,0.52
2023-07-03T09:06:49.500Z,0.73
2023-07-03T09:09:24.725Z,0.80
2023-07-03T09:12:01.098Z,0.70
2023-07-03T09:14:35.320Z,0.47
2023-07-03T09:17:04.430Z,0.80
2023-07-03T09:19:33.368Z,0.65
2023-07-03T09:22:06.243Z,0.50
2023-07-03T09:24:40.996Z,0.40
2023-07-03T09:27:14.528Z,0.57
2023-07-03T09:29:45.071Z,0.57
2023-07-03T09:32:15.181Z,0.50
2023-07-03T09:35:02.303Z,0.68
2023-07-03T09:37:31.065Z,0.60
2023-07-03T09:40:01.204Z,0.70
2023-07-03T09:42:32.170Z,0.30
2023-07-03T09:45:00.817Z,0.32
2023-07-03T09:47:31.714Z,0.50
2023-07-03T09:50:07.534Z,0.40
2023-07-03T09:52:47.185Z,0.30
2023-07-03T09:55:23.332Z,0.30
2023-07-03T09:57:52.418Z,0.13
2023-07-03T10:00:23.652Z,0.30
2023-07-03T10:08:07.529Z,0.93
2023-07-03T10:13:16.583Z,0.20
2023-07-03T10:15:45.722Z,0.38
2023-07-03T10:18:19.375Z,0.68
2023-07-03T10:20:52.522Z,0.73
2023-07-03T10:23:24.601Z,0.55
2023-07-03T10:25:58.311Z,0.68
2023-07-03T10:28:32.732Z,0.70
2023-07-03T10:31:06.494Z,0.50
2023-07-03T10:33:40.906Z,0.40
2023-07-03T10:36:13.701Z,0.80
2023-07-03T10:38:48.679Z,0.70
2023-07-03T10:41:25.867Z,0.47
2023-07-03T10:43:58.792Z,0.60
2023-07-03T10:46:31.951Z,0.47
2023-07-03T10:49:05.222Z,0.90
2023-07-03T10:51:40.019Z,1.30
2023-07-03T10:54:16.504Z,0.90
2023-07-03T10:56:49.601Z,1.15
2023-07-03T10:59:23.373Z,1.50
2023-07-03T11:01:59.142Z,1.05
2023-07-03T11:04:38.461Z,1.00
2023-07-03T11:07:13.810Z,0.88
2023-07-03T11:09:49.202Z,0.70
2023-07-03T11:12:29.497Z,1.20
2023-07-03T11:15:12.644Z,1.48
2023-07-03T11:23:17.445Z,1.30
2023-07-03T11:28:34.005Z,1.05
2023-07-03T11:31:05.698Z,0.85
2023-07-03T11:36:08.266Z,0.70
2023-07-03T11:43:49.711Z,1.00
2023-07-03T11:46:24.894Z,0.68
2023-07-03T11:48:58.828Z,1.02
2023-07-03T11:51:40.273Z,1.50
2023-07-03T11:54:24.166Z,0.35
2023-07-03T11:56:58.612Z,0.93
2023-07-03T11:59:49.686Z,0.50
2023-07-03T12:05:49.261Z,0.25
2023-07-03T12:08:53.728Z,0.20
2023-07-03T12:11:28.466Z,0.40
2023-07-03T12:13:57.437Z,0.32
2023-07-03T12:16:36.633Z,0.40
2023-07-03T12:19:08.407Z,0.40
2023-07-03T12:21:40.931Z,0.45
2023-07-03T12:24:26.962Z,0.40
2023-07-03T12:26:58.759Z,0.40
2023-07-03T12:29:27.580Z,0.20
2023-07-03T12:32:07.251Z,0.60
2023-07-03T12:34:38.469Z,0.40
2023-07-03T12:39:39.066Z,0.60
2023-07-03T12:42:10.103Z,0.45
2023-07-03T12:44:41.000Z,0.50
2023-07-03T12:47:15.512Z,0.73
2023-07-03T12:49:57.349Z,0.30
2023-07-03T12:52:28.177Z,0.65
2023-07-03T12:57:31.403Z,1.17
2023-07-03T13:00:01.733Z,1.60
2023-07-03T13:02:33.756Z,1.48
2023-07-03T13:05:06.249Z,1.27
2023-07-03T13:07:35.994Z,0.40
2023-07-03T13:10:12.059Z,0.95
2023-07-03T13:12:40.856Z,2.28
2023-07-03T13:15:12.869Z,2.65
2023-07-03T13:17:45.022Z,7.22
2023-07-03T13:20:27.981Z,2.97
2023-07-03T13:23:01.344Z,1.75
2023-07-03T13:25:37.445Z,1.98
2023-07-03T13:28:10.775Z,1.10
2023-07-03T13:30:42.297Z,0.85
2023-07-03T13:33:14.994Z,0.63
2023-07-03T13:35:46.127Z,0.40
2023-07-03T13:38:29.955Z,0.90
2023-07-03T13:41:00.752Z,1.15
2023-07-03T13:43:31.436Z,0.95
2023-07-03T13:48:31.575Z,0.80
2023-07-03T13:51:00.176Z,0.73
2023-07-03T13:53:29.191Z,0.45
2023-07-03T13:55:57.955Z,0.68
2023-07-03T13:58:26.912Z,0.73
2023-07-03T14:00:55.645Z,0.40
2023-07-03T14:03:24.375Z,0.50
2023-07-03T14:05:55.035Z,0.47
2023-07-03T14:08:24.161Z,0.55
2023-07-03T14:10:52.728Z,0.90
2023-07-03T14:13:21.553Z,0.70
2023-07-03T14:15:51.130Z,0.95
2023-07-03T14:18:19.979Z,0.57
2023-07-03T14:20:49.884Z,0.75
2023-07-03T14:23:20.391Z,0.90
2023-07-03T14:25:49.398Z,0.70
2023-07-03T14:28:18.679Z,0.90
2023-07-03T14:30:47.925Z,0.90
2023-07-03T14:33:17.441Z,0.73
2023-07-03T14:35:47.484Z,0.70
2023-07-03T14:38:16.790Z,1.00
2023-07-03T14:40:46.889Z,0.82
2023-07-03T14:43:15.590Z,0.90
2023-07-03T14:45:44.301Z,1.02
2023-07-03T14:48:13.825Z,0.17
2023-07-03T14:50:42.811Z,0.20
2023-07-03T14:53:11.496Z,0.47
2023-07-03T14:55:40.146Z,0.40
2023-07-03T14:58:14.205Z,0.28
2023-07-03T15:00:42.884Z,0.80
2023-07-03T15:03:12.768Z,0.90
2023-07-03T15:05:41.467Z,0.40
2023-07-03T15:08:10.201Z,0.20
2023-07-03T15:10:39.480Z,0.70
2023-07-03T15:13:07.987Z,0.90
2023-07-03T15:15:37.960Z,0.70
2023-07-03T15:18:07.193Z,0.65
2023-07-03T15:20:39.685Z,0.57
2023-07-03T15:23:08.632Z,0.63
2023-07-03T15:25:38.001Z,0.57
2023-07-03T15:28:07.206Z,0.63
2023-07-03T15:30:39.772Z,0.52
2023-07-03T15:33:10.235Z,0.80
2023-07-03T15:35:39.101Z,1.15
2023-07-03T15:38:07.983Z,1.77
2023-07-03T15:40:36.676Z,1.27
2023-07-03T15:43:05.349Z,1.00
2023-07-03T15:45:34.272Z,0.80
2023-07-03T15:48:02.972Z,0.98
2023-07-03T15:50:33.015Z,1.08
2023-07-03T15:53:01.695Z,1.00
2023-07-03T15:55:30.307Z,0.95
2023-07-03T15:57:58.894Z,1.20
2023-07-03T16:00:27.390Z,1.30
2023-07-03T16:02:56.206Z,0.93
2023-07-03T16:05:25.981Z,0.90
2023-07-03T16:07:56.921Z,0.63
2023-07-03T16:10:25.729Z,0.88
2023-07-03T16:12:54.385Z,0.68
2023-07-03T16:15:23.068Z,0.50
2023-07-03T16:17:51.692Z,0.47
2023-07-03T16:20:21.493Z,0.77
2023-07-03T16:22:51.369Z,0.40
2023-07-03T16:25:21.573Z,0.70
2023-07-03T16:27:50.806Z,0.88
2023-07-03T16:30:19.916Z,0.82
2023-07-03T16:32:50.561Z,0.70
2023-07-03T16:35:19.620Z,0.45
2023-07-03T16:37:49.881Z,0.65
2023-07-03T16:40:18.682Z,0.60
2023-07-03T16:42:49.788Z,0.80
2023-07-03T16:45:18.910Z,1.70
2023-07-03T16:47:47.514Z,0.80
2023-07-03T16:50:17.551Z,0.93
2023-07-03T16:52:46.394Z,0.47
2023-07-03T16:55:15.099Z,0.85
2023-07-03T16:57:43.670Z,0.70
2023-07-03T17:00:14.810Z,1.35
2023-07-03T17:02:43.567Z,0.70
2023-07-03T17:05:12.217Z,0.90
2023-07-03T17:07:42.311Z,0.77
2023-07-03T17:10:11.478Z,0.75
2023-07-03T17:12:39.934Z,0.80
2023-07-03T17:15:10.178Z,0.98
2023-07-03T17:17:41.193Z,1.10
2023-07-03T17:20:10.529Z,0.88
2023-07-03T17:22:39.156Z,0.93
2023-07-03T17:25:09.021Z,0.70
2023-07-03T17:27:37.685Z,0.93
2023-07-03T17:30:07.489Z,0.80
2023-07-03T17:32:36.112Z,1.23
2023-07-03T17:35:11.876Z,0.80
2023-07-03T17:37:40.653Z,0.63
2023-07-03T17:40:10.674Z,1.17
2023-07-03T17:42:39.563Z,0.93
2023-07-03T17:45:09.765Z,1.20
2023-07-03T17:47:38.705Z,1.20
2023-07-03T17:50:09.853Z,1.38
2023-07-03T17:52:38.515Z,0.98
2023-07-03T17:55:08.394Z,1.30
2023-07-03T17:57:37.164Z,1.33
2023-07-03T18:00:08.080Z,1.50
2023-07-03T18:02:37.531Z,1.75
2023-07-03T18:05:10.842Z,1.90
2023-07-03T18:07:39.786Z,1.08
2023-07-03T18:10:10.171Z,1.55
2023-07-03T18:12:39.602Z,1.45
2023-07-03T18:15:09.172Z,1.15
2023-07-03T18:17:37.809Z,1.38
2023-07-03T18:20:07.009Z,1.30
2023-07-03T18:22:37.240Z,1.13
2023-07-03T18:25:06.668Z,1.30
2023-07-03T18:27:35.411Z,1.42
2023-07-03T18:30:04.536Z,1.42
2023-07-03T18:32:35.385Z,0.80
2023-07-03T18:37:33.006Z,1.15
2023-07-03T18:40:04.042Z,0.93
2023-07-03T18:42:33.016Z,0.70
2023-07-03T18:45:01.638Z,0.68
2023-07-03T18:47:31.500Z,0.70
2023-07-03T18:50:25.547Z,0.60
2023-07-03T18:52:54.232Z,0.60
2023-07-03T18:55:24.761Z,0.73
2023-07-03T18:57:53.490Z,0.50
2023-07-03T19:00:22.254Z,0.40
2023-07-03T19:02:51.293Z,0.47
2023-07-03T19:05:19.837Z,0.60
2023-07-03T19:07:48.498Z,0.57
2023-07-03T19:10:19.228Z,0.47
2023-07-03T19:15:19.873Z,0.45
2023-07-03T19:17:48.946Z,0.50
2023-07-03T19:20:20.859Z,0.50
2023-07-03T19:22:49.618Z,1.00
2023-07-03T19:25:18.475Z,0.60
2023-07-03T19:27:51.193Z,0.80
2023-07-03T19:30:20.160Z,0.60
2023-07-03T19:32:48.621Z,0.47
2023-07-03T19:35:17.905Z,0.50
2023-07-03T19:37:50.352Z,0.30
2023-07-03T19:40:19.372Z,0.30
2023-07-03T19:42:49.026Z,0.65
2023-07-03T19:45:19.826Z,0.32
2023-07-03T19:48:09.433Z,0.40
2023-07-03T19:50:39.475Z,0.40
2023-07-03T19:53:10.265Z,0.45
2023-07-03T19:55:39.720Z,0.32
2023-07-03T19:58:08.425Z,1.00
2023-07-03T20:00:38.579Z,0.70
2023-07-03T20:03:07.826Z,0.60
2023-07-03T20:05:37.283Z,0.20
2023-07-03T20:08:05.972Z,0.52
2023-07-03T20:10:34.574Z,0.65
2023-07-03T20:13:03.775Z,0.50
2023-07-03T20:15:33.111Z,0.68
2023-07-03T20:18:03.259Z,0.45
2023-07-03T20:20:31.829Z,0.50
2023-07-03T20:23:00.537Z,0.52
2023-07-03T20:25:29.182Z,0.65
2023-07-03T20:27:57.776Z,1.05
2023-07-03T20:30:26.409Z,0.98
2023-07-03T20:32:55.392Z,0.40
2023-07-03T20:35:26.280Z,0.85
2023-07-03T20:40:56.757Z,0.33
2023-07-03T20:43:25.551Z,0.50
2023-07-03T20:46:02.753Z,0.43
2023-07-03T20:48:31.776Z,0.30
2023-07-03T20:51:05.446Z,0.50
2023-07-03T20:54:00.904Z,0.65
2023-07-03T20:56:31.840Z,0.70
2023-07-03T21:01:32.859Z,0.68
2023-07-03T21:04:04.435Z,0.40
2023-07-03T21:09:46.067Z,0.47
2023-07-03T21:12:15.150Z,0.60
2023-07-03T21:14:43.774Z,0.47
2023-07-03T21:17:12.701Z,0.60
2023-07-03T21:19:41.335Z,1.00
2023-07-03T21:22:11.547Z,0.73
2023-07-03T21:24:40.431Z,0.60
2023-07-03T21:27:09.072Z,0.55
2023-07-03T21:29:37.730Z,0.68
2023-07-03T21:32:07.813Z,0.50
2023-07-03T21:34:36.771Z,0.47
2023-07-03T21:37:07.372Z,0.50
2023-07-03T21:39:37.669Z,0.52
2023-07-03T21:42:07.251Z,0.50
2023-07-03T21:44:35.796Z,0.40
2023-07-03T21:47:04.828Z,0.57
2023-07-03T21:49:33.525Z,0.38
2023-07-03T21:52:02.274Z,0.50
2023-07-03T21:54:31.073Z,0.75
2023-07-03T21:57:01.281Z,0.88
2023-07-03T21:59:30.100Z,0.63
2023-07-03T22:02:00.610Z,0.70
2023-07-03T22:04:29.733Z,0.52
2023-07-03T22:06:59.236Z,0.52
2023-07-03T22:09:37.652Z,0.60
2023-07-03T22:12:10.232Z,0.70
2023-07-03T22:14:39.246Z,0.40
2023-07-03T22:17:07.961Z,0.75
2023-07-03T22:19:38.297Z,0.50
2023-07-03T22:22:08.985Z,0.60
2023-07-03T22:24:37.624Z,0.70
2023-07-03T22:27:08.116Z,0.77
2023-07-03T22:29:38.117Z,0.65
2023-07-03T22:32:07.959Z,0.40
2023-07-03T22:34:36.708Z,0.80
2023-07-03T22:37:05.766Z,0.77
2023-07-03T22:39:34.476Z,0.55
2023-07-03T22:42:03.272Z,0.43
2023-07-03T22:44:33.750Z,0.60
2023-07-03T22:47:02.599Z,0.60
2023-07-03T22:49:31.288Z,0.63
2023-07-03T22:51:59.865Z,0.52
2023-07-03T22:54:28.588Z,0.63
2023-07-03T22:56:57.720Z,0.43
2023-07-03T22:59:26.488Z,0.73
2023-07-03T23:01:57.070Z,0.38
2023-07-03T23:04:25.950Z,0.63
2023-07-03T23:06:54.751Z,0.55
2023-07-03T23:09:23.485Z,0.50
2023-07-03T23:11:52.547Z,0.80
2023-07-03T23:14:21.467Z,0.50
2023-07-03T23:16:50.306Z,0.40
2023-07-03T23:19:20.443Z,0.95
2023-07-03T23:21:51.386Z,0.80
2023-07-03T23:24:20.848Z,0.50
2023-07-03T23:26:51.895Z,0.65
2023-07-03T23:29:22.322Z,0.47
2023-07-03T23:31:51.333Z,0.47
2023-07-03T23:34:21.748Z,0.90
2023-07-03T23:36:52.493Z,0.60
2023-07-03T23:39:21.437Z,0.68
2023-07-03T23:41:52.530Z,1.02
2023-07-03T23:44:21.447Z,0.80
2023-07-03T23:46:51.454Z,0.75
2023-07-03T23:49:21.690Z,0.50
2023-07-03T23:51:53.408Z,0.63
2023-07-03T23:54:23.785Z,0.50
2023-07-03T23:56:52.906Z,1.00
2023-07-03T23:59:22.260Z,0.40
